sensor_id;sensor_type;location;lat;lon;timestamp;P1;durP1;ratioP1;P2;durP2;ratioP2
57071;SDS011;42956;51.366;11.298;2024-02-15T00:00:33;3.58;;;3.08;;
57071;SDS011;42956;51.366;11.298;2024-02-15T00:03:04;4.40;;;3.60;;
57071;SDS011;42956;51.366;11.298;2024-02-15T00:05:43;4.13;;;3.17;;
57071;SDS011;42956;51.366;11.298;2024-02-15T00:10:45;4.03;;;3.13;;
57071;SDS011;42956;51.366;11.298;2024-02-15T00:13:15;4.50;;;3.83;;
57071;SDS011;42956;51.366;11.298;2024-02-15T00:15:45;8.93;;;3.25;;
57071;SDS011;42956;51.366;11.298;2024-02-15T00:18:16;6.30;;;3.55;;
57071;SDS011;42956;51.366;11.298;2024-02-15T00:20:49;3.72;;;3.42;;
57071;SDS011;42956;51.366;11.298;2024-02-15T00:23:19;4.75;;;3.80;;
57071;SDS011;42956;51.366;11.298;2024-02-15T00:25:50;4.18;;;3.78;;
57071;SDS011;42956;51.366;11.298;2024-02-15T00:28:20;6.97;;;3.28;;
57071;SDS011;42956;51.366;11.298;2024-02-15T00:30:51;3.45;;;3.15;;
57071;SDS011;42956;51.366;11.298;2024-02-15T00:33:21;3.42;;;3.13;;
57071;SDS011;42956;51.366;11.298;2024-02-15T00:35:54;4.38;;;3.72;;
57071;SDS011;42956;51.366;11.298;2024-02-15T00:40:55;8.27;;;3.38;;
57071;SDS011;42956;51.366;11.298;2024-02-15T00:43:26;4.75;;;3.53;;
57071;SDS011;42956;51.366;11.298;2024-02-15T00:45:56;5.15;;;3.80;;
57071;SDS011;42956;51.366;11.298;2024-02-15T00:48:26;6.93;;;3.65;;
57071;SDS011;42956;51.366;11.298;2024-02-15T00:50:59;3.90;;;3.28;;
57071;SDS011;42956;51.366;11.298;2024-02-15T00:53:30;3.60;;;3.22;;
57071;SDS011;42956;51.366;11.298;2024-02-15T00:56:00;6.07;;;3.53;;
57071;SDS011;42956;51.366;11.298;2024-02-15T00:58:33;4.40;;;3.47;;
57071;SDS011;42956;51.366;11.298;2024-02-15T01:01:03;6.50;;;4.10;;
57071;SDS011;42956;51.366;11.298;2024-02-15T01:03:34;4.00;;;3.58;;
57071;SDS011;42956;51.366;11.298;2024-02-15T01:06:08;4.13;;;3.63;;
57071;SDS011;42956;51.366;11.298;2024-02-15T01:08:39;4.38;;;3.65;;
57071;SDS011;42956;51.366;11.298;2024-02-15T01:11:09;5.32;;;3.38;;
57071;SDS011;42956;51.366;11.298;2024-02-15T01:13:40;4.82;;;3.70;;
57071;SDS011;42956;51.366;11.298;2024-02-15T01:16:11;5.85;;;3.97;;
57071;SDS011;42956;51.366;11.298;2024-02-15T01:18:42;8.95;;;4.70;;
57071;SDS011;42956;51.366;11.298;2024-02-15T01:21:15;4.75;;;4.00;;
57071;SDS011;42956;51.366;11.298;2024-02-15T01:23:46;6.88;;;4.05;;
57071;SDS011;42956;51.366;11.298;2024-02-15T01:26:16;8.48;;;4.13;;
57071;SDS011;42956;51.366;11.298;2024-02-15T01:28:47;8.30;;;3.70;;
57071;SDS011;42956;51.366;11.298;2024-02-15T01:31:17;3.70;;;3.40;;
57071;SDS011;42956;51.366;11.298;2024-02-15T01:33:48;4.38;;;3.80;;
57071;SDS011;42956;51.366;11.298;2024-02-15T01:36:21;4.75;;;3.97;;
57071;SDS011;42956;51.366;11.298;2024-02-15T01:38:52;4.25;;;3.78;;
57071;SDS011;42956;51.366;11.298;2024-02-15T01:41:22;4.75;;;3.55;;
57071;SDS011;42956;51.366;11.298;2024-02-15T01:43:52;4.50;;;4.00;;
57071;SDS011;42956;51.366;11.298;2024-02-15T01:46:22;5.40;;;4.22;;
57071;SDS011;42956;51.366;11.298;2024-02-15T01:48:52;6.32;;;5.13;;
57071;SDS011;42956;51.366;11.298;2024-02-15T01:51:26;6.65;;;4.95;;
57071;SDS011;42956;51.366;11.298;2024-02-15T01:53:57;6.35;;;4.70;;
57071;SDS011;42956;51.366;11.298;2024-02-15T01:56:28;5.68;;;4.57;;
57071;SDS011;42956;51.366;11.298;2024-02-15T01:58:59;5.25;;;4.75;;
57071;SDS011;42956;51.366;11.298;2024-02-15T02:01:30;5.32;;;4.35;;
57071;SDS011;42956;51.366;11.298;2024-02-15T02:04:00;5.75;;;5.13;;
57071;SDS011;42956;51.366;11.298;2024-02-15T02:06:34;5.93;;;4.55;;
57071;SDS011;42956;51.366;11.298;2024-02-15T02:09:04;5.15;;;4.35;;
57071;SDS011;42956;51.366;11.298;2024-02-15T02:11:35;6.50;;;4.85;;
57071;SDS011;42956;51.366;11.298;2024-02-15T02:14:05;5.28;;;4.65;;
57071;SDS011;42956;51.366;11.298;2024-02-15T02:16:35;5.80;;;4.57;;
57071;SDS011;42956;51.366;11.298;2024-02-15T02:19:06;7.05;;;5.40;;
57071;SDS011;42956;51.366;11.298;2024-02-15T02:21:40;6.15;;;5.25;;
57071;SDS011;42956;51.366;11.298;2024-02-15T02:24:12;6.40;;;5.78;;
57071;SDS011;42956;51.366;11.298;2024-02-15T02:26:45;10.43;;;5.65;;
57071;SDS011;42956;51.366;11.298;2024-02-15T02:29:15;5.43;;;4.90;;
57071;SDS011;42956;51.366;11.298;2024-02-15T02:31:45;7.35;;;6.07;;
57071;SDS011;42956;51.366;11.298;2024-02-15T02:34:16;8.57;;;5.50;;
57071;SDS011;42956;51.366;11.298;2024-02-15T02:36:47;6.63;;;5.35;;
57071;SDS011;42956;51.366;11.298;2024-02-15T02:39:18;7.03;;;4.97;;
57071;SDS011;42956;51.366;11.298;2024-02-15T02:41:52;6.80;;;5.60;;
57071;SDS011;42956;51.366;11.298;2024-02-15T02:44:22;8.25;;;6.53;;
57071;SDS011;42956;51.366;11.298;2024-02-15T02:46:53;6.90;;;5.80;;
57071;SDS011;42956;51.366;11.298;2024-02-15T02:49:23;6.68;;;5.57;;
57071;SDS011;42956;51.366;11.298;2024-02-15T02:51:53;7.57;;;6.40;;
57071;SDS011;42956;51.366;11.298;2024-02-15T02:54:23;10.50;;;7.07;;
57071;SDS011;42956;51.366;11.298;2024-02-15T02:56:56;7.00;;;5.32;;
57071;SDS011;42956;51.366;11.298;2024-02-15T03:01:57;9.48;;;7.78;;
57071;SDS011;42956;51.366;11.298;2024-02-15T03:04:27;7.15;;;6.22;;
57071;SDS011;42956;51.366;11.298;2024-02-15T03:06:59;7.57;;;6.47;;
57071;SDS011;42956;51.366;11.298;2024-02-15T03:09:30;7.78;;;6.57;;
57071;SDS011;42956;51.366;11.298;2024-02-15T03:12:03;8.73;;;7.32;;
57071;SDS011;42956;51.366;11.298;2024-02-15T03:14:34;8.40;;;7.22;;
57071;SDS011;42956;51.366;11.298;2024-02-15T03:17:05;7.68;;;6.50;;
57071;SDS011;42956;51.366;11.298;2024-02-15T03:19:35;8.10;;;7.22;;
57071;SDS011;42956;51.366;11.298;2024-02-15T03:22:05;9.25;;;7.03;;
57071;SDS011;42956;51.366;11.298;2024-02-15T03:24:35;7.95;;;6.70;;
57071;SDS011;42956;51.366;11.298;2024-02-15T03:27:08;7.78;;;6.35;;
57071;SDS011;42956;51.366;11.298;2024-02-15T03:29:39;14.13;;;7.18;;
57071;SDS011;42956;51.366;11.298;2024-02-15T03:32:10;10.45;;;6.53;;
57071;SDS011;42956;51.366;11.298;2024-02-15T03:34:40;7.65;;;6.85;;
57071;SDS011;42956;51.366;11.298;2024-02-15T03:37:10;10.75;;;7.07;;
57071;SDS011;42956;51.366;11.298;2024-02-15T03:39:41;9.02;;;8.05;;
57071;SDS011;42956;51.366;11.298;2024-02-15T03:42:13;8.00;;;7.20;;
57071;SDS011;42956;51.366;11.298;2024-02-15T03:44:43;9.60;;;7.55;;
57071;SDS011;42956;51.366;11.298;2024-02-15T03:47:14;8.45;;;7.60;;
57071;SDS011;42956;51.366;11.298;2024-02-15T03:49:46;8.48;;;7.50;;
57071;SDS011;42956;51.366;11.298;2024-02-15T03:52:16;9.35;;;7.35;;
57071;SDS011;42956;51.366;11.298;2024-02-15T03:54:46;9.75;;;8.18;;
57071;SDS011;42956;51.366;11.298;2024-02-15T03:57:19;8.63;;;7.35;;
57071;SDS011;42956;51.366;11.298;2024-02-15T03:59:49;9.05;;;7.65;;
57071;SDS011;42956;51.366;11.298;2024-02-15T04:02:22;9.60;;;7.43;;
57071;SDS011;42956;51.366;11.298;2024-02-15T04:04:55;9.23;;;7.72;;
57071;SDS011;42956;51.366;11.298;2024-02-15T04:07:25;8.85;;;7.75;;
57071;SDS011;42956;51.366;11.298;2024-02-15T04:09:55;9.38;;;7.32;;
57071;SDS011;42956;51.366;11.298;2024-02-15T04:12:28;10.25;;;7.10;;
57071;SDS011;42956;51.366;11.298;2024-02-15T04:14:58;9.77;;;8.05;;
57071;SDS011;42956;51.366;11.298;2024-02-15T04:17:33;8.77;;;7.22;;
57071;SDS011;42956;51.366;11.298;2024-02-15T04:20:03;8.50;;;7.15;;
57071;SDS011;42956;51.366;11.298;2024-02-15T04:22:33;10.50;;;8.25;;
57071;SDS011;42956;51.366;11.298;2024-02-15T04:25:04;9.32;;;7.55;;
57071;SDS011;42956;51.366;11.298;2024-02-15T04:27:39;7.70;;;7.00;;
57071;SDS011;42956;51.366;11.298;2024-02-15T04:30:09;8.75;;;7.75;;
57071;SDS011;42956;51.366;11.298;2024-02-15T04:32:40;9.40;;;7.82;;
57071;SDS011;42956;51.366;11.298;2024-02-15T04:35:10;9.43;;;8.30;;
57071;SDS011;42956;51.366;11.298;2024-02-15T04:37:41;7.88;;;7.10;;
57071;SDS011;42956;51.366;11.298;2024-02-15T04:40:14;11.20;;;8.05;;
57071;SDS011;42956;51.366;11.298;2024-02-15T04:42:47;8.30;;;7.13;;
57071;SDS011;42956;51.366;11.298;2024-02-15T04:45:17;12.25;;;7.65;;
57071;SDS011;42956;51.366;11.298;2024-02-15T04:47:49;8.20;;;7.32;;
57071;SDS011;42956;51.366;11.298;2024-02-15T04:50:20;8.70;;;7.50;;
57071;SDS011;42956;51.366;11.298;2024-02-15T04:52:52;8.00;;;7.20;;
57071;SDS011;42956;51.366;11.298;2024-02-15T04:55:22;8.40;;;6.97;;
57071;SDS011;42956;51.366;11.298;2024-02-15T04:57:56;10.48;;;7.90;;
57071;SDS011;42956;51.366;11.298;2024-02-15T05:00:27;10.68;;;8.35;;
57071;SDS011;42956;51.366;11.298;2024-02-15T05:02:57;8.40;;;7.32;;
57071;SDS011;42956;51.366;11.298;2024-02-15T05:05:27;9.32;;;8.15;;
57071;SDS011;42956;51.366;11.298;2024-02-15T05:07:57;9.48;;;8.27;;
57071;SDS011;42956;51.366;11.298;2024-02-15T05:10:28;11.07;;;8.20;;
57071;SDS011;42956;51.366;11.298;2024-02-15T05:13:01;8.32;;;7.53;;
57071;SDS011;42956;51.366;11.298;2024-02-15T05:15:31;10.82;;;7.82;;
57071;SDS011;42956;51.366;11.298;2024-02-15T05:18:02;8.82;;;7.43;;
57071;SDS011;42956;51.366;11.298;2024-02-15T05:20:35;9.90;;;7.30;;
57071;SDS011;42956;51.366;11.298;2024-02-15T05:23:05;8.98;;;7.50;;
57071;SDS011;42956;51.366;11.298;2024-02-15T05:25:35;12.35;;;7.72;;
57071;SDS011;42956;51.366;11.298;2024-02-15T05:28:08;9.30;;;7.25;;
57071;SDS011;42956;51.366;11.298;2024-02-15T05:30:39;8.55;;;6.80;;
57071;SDS011;42956;51.366;11.298;2024-02-15T05:33:09;10.40;;;7.18;;
57071;SDS011;42956;51.366;11.298;2024-02-15T05:35:39;7.82;;;6.50;;
57071;SDS011;42956;51.366;11.298;2024-02-15T05:38:17;15.98;;;7.93;;
57071;SDS011;42956;51.366;11.298;2024-02-15T05:40:47;9.60;;;6.32;;
57071;SDS011;42956;51.366;11.298;2024-02-15T05:43:20;8.05;;;6.82;;
57071;SDS011;42956;51.366;11.298;2024-02-15T05:45:51;9.77;;;6.90;;
57071;SDS011;42956;51.366;11.298;2024-02-15T05:48:21;8.35;;;6.68;;
57071;SDS011;42956;51.366;11.298;2024-02-15T05:50:52;7.82;;;6.90;;
57071;SDS011;42956;51.366;11.298;2024-02-15T05:53:24;8.17;;;6.07;;
57071;SDS011;42956;51.366;11.298;2024-02-15T05:55:54;11.35;;;7.00;;
57071;SDS011;42956;51.366;11.298;2024-02-15T05:58:27;9.27;;;6.90;;
57071;SDS011;42956;51.366;11.298;2024-02-15T06:00:57;9.57;;;6.25;;
57071;SDS011;42956;51.366;11.298;2024-02-15T06:03:29;10.88;;;6.13;;
57071;SDS011;42956;51.366;11.298;2024-02-15T06:06:01;10.27;;;6.72;;
57071;SDS011;42956;51.366;11.298;2024-02-15T06:08:34;11.02;;;7.75;;
57071;SDS011;42956;51.366;11.298;2024-02-15T06:11:04;9.45;;;7.03;;
57071;SDS011;42956;51.366;11.298;2024-02-15T06:13:39;12.30;;;6.90;;
57071;SDS011;42956;51.366;11.298;2024-02-15T06:16:09;14.82;;;6.95;;
57071;SDS011;42956;51.366;11.298;2024-02-15T06:18:39;9.57;;;7.00;;
57071;SDS011;42956;51.366;11.298;2024-02-15T06:21:10;10.23;;;6.57;;
57071;SDS011;42956;51.366;11.298;2024-02-15T06:23:40;9.00;;;6.57;;
57071;SDS011;42956;51.366;11.298;2024-02-15T06:26:10;11.38;;;6.90;;
57071;SDS011;42956;51.366;11.298;2024-02-15T06:28:42;8.48;;;6.88;;
57071;SDS011;42956;51.366;11.298;2024-02-15T06:31:25;9.95;;;6.38;;
57071;SDS011;42956;51.366;11.298;2024-02-15T06:34:07;9.00;;;6.93;;
57071;SDS011;42956;51.366;11.298;2024-02-15T06:36:52;10.57;;;7.25;;
57071;SDS011;42956;51.366;11.298;2024-02-15T06:39:35;9.23;;;7.35;;
57071;SDS011;42956;51.366;11.298;2024-02-15T06:42:10;10.27;;;7.57;;
57071;SDS011;42956;51.366;11.298;2024-02-15T06:44:45;8.98;;;7.65;;
57071;SDS011;42956;51.366;11.298;2024-02-15T06:47:16;8.57;;;6.85;;
57071;SDS011;42956;51.366;11.298;2024-02-15T06:49:46;8.75;;;7.60;;
57071;SDS011;42956;51.366;11.298;2024-02-15T06:52:18;10.95;;;6.78;;
57071;SDS011;42956;51.366;11.298;2024-02-15T06:54:49;11.50;;;6.88;;
57071;SDS011;42956;51.366;11.298;2024-02-15T06:57:20;8.40;;;6.78;;
57071;SDS011;42956;51.366;11.298;2024-02-15T06:59:52;11.93;;;7.95;;
57071;SDS011;42956;51.366;11.298;2024-02-15T07:02:24;13.50;;;6.78;;
57071;SDS011;42956;51.366;11.298;2024-02-15T07:04:54;13.98;;;7.07;;
57071;SDS011;42956;51.366;11.298;2024-02-15T07:07:24;9.75;;;6.50;;
57071;SDS011;42956;51.366;11.298;2024-02-15T07:09:54;9.57;;;6.30;;
57071;SDS011;42956;51.366;11.298;2024-02-15T07:12:25;9.82;;;7.28;;
57071;SDS011;42956;51.366;11.298;2024-02-15T07:14:57;7.88;;;6.07;;
57071;SDS011;42956;51.366;11.298;2024-02-15T07:17:28;9.88;;;7.22;;
57071;SDS011;42956;51.366;11.298;2024-02-15T07:19:59;9.32;;;6.45;;
57071;SDS011;42956;51.366;11.298;2024-02-15T07:22:30;8.18;;;6.78;;
57071;SDS011;42956;51.366;11.298;2024-02-15T07:25:02;12.07;;;7.43;;
57071;SDS011;42956;51.366;11.298;2024-02-15T07:27:33;11.98;;;7.00;;
57071;SDS011;42956;51.366;11.298;2024-02-15T07:30:06;11.43;;;7.07;;
57071;SDS011;42956;51.366;11.298;2024-02-15T07:32:36;9.52;;;6.57;;
57071;SDS011;42956;51.366;11.298;2024-02-15T07:35:07;9.55;;;6.70;;
57071;SDS011;42956;51.366;11.298;2024-02-15T07:37:39;16.48;;;8.27;;
57071;SDS011;42956;51.366;11.298;2024-02-15T07:40:10;11.75;;;6.82;;
57071;SDS011;42956;51.366;11.298;2024-02-15T07:42:40;11.07;;;7.57;;
57071;SDS011;42956;51.366;11.298;2024-02-15T07:45:13;11.23;;;7.28;;
57071;SDS011;42956;51.366;11.298;2024-02-15T07:47:45;13.45;;;8.05;;
57071;SDS011;42956;51.366;11.298;2024-02-15T07:50:16;18.40;;;8.90;;
57071;SDS011;42956;51.366;11.298;2024-02-15T07:52:50;15.75;;;7.70;;
57071;SDS011;42956;51.366;11.298;2024-02-15T07:55:20;9.02;;;7.32;;
57071;SDS011;42956;51.366;11.298;2024-02-15T07:57:51;13.32;;;7.47;;
57071;SDS011;42956;51.366;11.298;2024-02-15T08:00:25;10.75;;;6.15;;
57071;SDS011;42956;51.366;11.298;2024-02-15T08:02:57;9.50;;;6.90;;
57071;SDS011;42956;51.366;11.298;2024-02-15T08:05:28;10.88;;;6.95;;
57071;SDS011;42956;51.366;11.298;2024-02-15T08:07:58;14.02;;;7.50;;
57071;SDS011;42956;51.366;11.298;2024-02-15T08:10:28;11.07;;;6.32;;
57071;SDS011;42956;51.366;11.298;2024-02-15T08:12:58;9.18;;;7.05;;
57071;SDS011;42956;51.366;11.298;2024-02-15T08:15:31;15.07;;;7.30;;
57071;SDS011;42956;51.366;11.298;2024-02-15T08:18:01;11.13;;;6.65;;
57071;SDS011;42956;51.366;11.298;2024-02-15T08:20:36;12.40;;;6.88;;
57071;SDS011;42956;51.366;11.298;2024-02-15T08:23:07;8.02;;;5.72;;
57071;SDS011;42956;51.366;11.298;2024-02-15T08:25:38;14.85;;;6.28;;
57071;SDS011;42956;51.366;11.298;2024-02-15T08:28:08;14.60;;;6.80;;
57071;SDS011;42956;51.366;11.298;2024-02-15T08:30:41;15.45;;;5.88;;
57071;SDS011;42956;51.366;11.298;2024-02-15T08:33:11;9.90;;;6.38;;
57071;SDS011;42956;51.366;11.298;2024-02-15T08:35:41;8.85;;;5.60;;
57071;SDS011;42956;51.366;11.298;2024-02-15T08:38:12;10.30;;;5.95;;
57071;SDS011;42956;51.366;11.298;2024-02-15T08:40:42;10.60;;;6.22;;
57071;SDS011;42956;51.366;11.298;2024-02-15T08:43:13;13.63;;;6.35;;
57071;SDS011;42956;51.366;11.298;2024-02-15T08:45:46;11.77;;;6.32;;
57071;SDS011;42956;51.366;11.298;2024-02-15T08:48:18;11.23;;;5.82;;
57071;SDS011;42956;51.366;11.298;2024-02-15T08:50:50;11.15;;;5.65;;
57071;SDS011;42956;51.366;11.298;2024-02-15T08:53:20;5.82;;;4.75;;
57071;SDS011;42956;51.366;11.298;2024-02-15T08:55:51;11.60;;;5.32;;
57071;SDS011;42956;51.366;11.298;2024-02-15T08:58:22;6.72;;;4.72;;
57071;SDS011;42956;51.366;11.298;2024-02-15T09:00:55;9.98;;;6.10;;
57071;SDS011;42956;51.366;11.298;2024-02-15T09:03:25;6.90;;;5.38;;
57071;SDS011;42956;51.366;11.298;2024-02-15T09:05:55;10.32;;;5.32;;
57071;SDS011;42956;51.366;11.298;2024-02-15T09:08:30;7.22;;;5.10;;
57071;SDS011;42956;51.366;11.298;2024-02-15T09:11:00;13.10;;;5.82;;
57071;SDS011;42956;51.366;11.298;2024-02-15T09:13:32;9.07;;;5.55;;
57071;SDS011;42956;51.366;11.298;2024-02-15T09:16:07;9.23;;;5.15;;
57071;SDS011;42956;51.366;11.298;2024-02-15T09:18:39;10.57;;;5.05;;
57071;SDS011;42956;51.366;11.298;2024-02-15T09:21:13;6.63;;;4.50;;
57071;SDS011;42956;51.366;11.298;2024-02-15T09:23:43;8.32;;;4.78;;
57071;SDS011;42956;51.366;11.298;2024-02-15T09:26:13;10.23;;;4.43;;
57071;SDS011;42956;51.366;11.298;2024-02-15T09:28:43;5.82;;;3.80;;
57071;SDS011;42956;51.366;11.298;2024-02-15T09:31:16;9.65;;;4.82;;
57071;SDS011;42956;51.366;11.298;2024-02-15T09:33:46;7.93;;;4.75;;
57071;SDS011;42956;51.366;11.298;2024-02-15T09:36:16;9.30;;;5.35;;
57071;SDS011;42956;51.366;11.298;2024-02-15T09:38:46;10.00;;;4.70;;
57071;SDS011;42956;51.366;11.298;2024-02-15T09:41:16;9.40;;;3.85;;
57071;SDS011;42956;51.366;11.298;2024-02-15T09:43:46;9.32;;;4.22;;
57071;SDS011;42956;51.366;11.298;2024-02-15T09:46:19;6.65;;;3.55;;
57071;SDS011;42956;51.366;11.298;2024-02-15T09:48:50;6.95;;;3.80;;
57071;SDS011;42956;51.366;11.298;2024-02-15T09:51:25;8.25;;;3.75;;
57071;SDS011;42956;51.366;11.298;2024-02-15T09:53:55;7.03;;;4.05;;
57071;SDS011;42956;51.366;11.298;2024-02-15T09:56:28;3.93;;;3.53;;
57071;SDS011;42956;51.366;11.298;2024-02-15T09:59:00;4.45;;;3.22;;
57071;SDS011;42956;51.366;11.298;2024-02-15T10:01:34;6.13;;;3.80;;
57071;SDS011;42956;51.366;11.298;2024-02-15T10:04:04;5.60;;;3.65;;
57071;SDS011;42956;51.366;11.298;2024-02-15T10:06:35;3.83;;;3.35;;
57071;SDS011;42956;51.366;11.298;2024-02-15T10:11:53;6.18;;;3.28;;
57071;SDS011;42956;51.366;11.298;2024-02-15T10:16:59;5.95;;;3.80;;
57071;SDS011;42956;51.366;11.298;2024-02-15T10:19:36;6.72;;;4.22;;
57071;SDS011;42956;51.366;11.298;2024-02-15T10:22:07;7.38;;;3.67;;
57071;SDS011;42956;51.366;11.298;2024-02-15T10:24:37;4.70;;;3.95;;
57071;SDS011;42956;51.366;11.298;2024-02-15T10:27:07;5.30;;;4.35;;
57071;SDS011;42956;51.366;11.298;2024-02-15T10:29:38;20.35;;;13.48;;
57071;SDS011;42956;51.366;11.298;2024-02-15T10:32:12;5.22;;;4.28;;
57071;SDS011;42956;51.366;11.298;2024-02-15T10:34:45;9.77;;;6.22;;
57071;SDS011;42956;51.366;11.298;2024-02-15T10:39:46;8.77;;;3.40;;
57071;SDS011;42956;51.366;11.298;2024-02-15T10:42:16;6.68;;;3.45;;
57071;SDS011;42956;51.366;11.298;2024-02-15T10:44:46;4.70;;;3.10;;
57071;SDS011;42956;51.366;11.298;2024-02-15T10:47:20;5.93;;;2.33;;
57071;SDS011;42956;51.366;11.298;2024-02-15T10:52:20;3.95;;;2.50;;
57071;SDS011;42956;51.366;11.298;2024-02-15T10:54:52;4.07;;;2.45;;
57071;SDS011;42956;51.366;11.298;2024-02-15T10:57:22;4.43;;;2.20;;
57071;SDS011;42956;51.366;11.298;2024-02-15T10:59:56;3.45;;;2.38;;
57071;SDS011;42956;51.366;11.298;2024-02-15T11:02:32;7.00;;;2.83;;
57071;SDS011;42956;51.366;11.298;2024-02-15T11:05:05;3.75;;;2.45;;
57071;SDS011;42956;51.366;11.298;2024-02-15T11:07:37;5.72;;;4.15;;
57071;SDS011;42956;51.366;11.298;2024-02-15T11:10:08;4.05;;;2.72;;
57071;SDS011;42956;51.366;11.298;2024-02-15T11:12:45;4.90;;;3.10;;
57071;SDS011;42956;51.366;11.298;2024-02-15T11:18:05;6.43;;;3.10;;
57071;SDS011;42956;51.366;11.298;2024-02-15T11:20:50;5.15;;;2.85;;
57071;SDS011;42956;51.366;11.298;2024-02-15T11:23:23;5.18;;;3.22;;
57071;SDS011;42956;51.366;11.298;2024-02-15T11:26:03;3.42;;;2.45;;
57071;SDS011;42956;51.366;11.298;2024-02-15T11:28:37;7.38;;;3.00;;
57071;SDS011;42956;51.366;11.298;2024-02-15T11:31:09;4.18;;;3.00;;
57071;SDS011;42956;51.366;11.298;2024-02-15T11:33:43;7.88;;;3.45;;
57071;SDS011;42956;51.366;11.298;2024-02-15T11:36:13;8.18;;;3.30;;
57071;SDS011;42956;51.366;11.298;2024-02-15T11:38:44;6.03;;;2.97;;
57071;SDS011;42956;51.366;11.298;2024-02-15T11:41:17;4.18;;;2.97;;
57071;SDS011;42956;51.366;11.298;2024-02-15T11:43:50;4.15;;;2.72;;
57071;SDS011;42956;51.366;11.298;2024-02-15T11:46:24;6.10;;;4.97;;
57071;SDS011;42956;51.366;11.298;2024-02-15T11:49:00;6.43;;;3.67;;
57071;SDS011;42956;51.366;11.298;2024-02-15T11:51:32;3.40;;;3.10;;
57071;SDS011;42956;51.366;11.298;2024-02-15T11:54:05;4.03;;;3.33;;
57071;SDS011;42956;51.366;11.298;2024-02-15T11:56:52;5.28;;;3.70;;
57071;SDS011;42956;51.366;11.298;2024-02-15T11:59:43;6.07;;;3.65;;
57071;SDS011;42956;51.366;11.298;2024-02-15T12:02:43;4.13;;;3.05;;
57071;SDS011;42956;51.366;11.298;2024-02-15T12:05:28;5.38;;;3.47;;
57071;SDS011;42956;51.366;11.298;2024-02-15T12:08:10;2.85;;;2.45;;
57071;SDS011;42956;51.366;11.298;2024-02-15T12:10:57;4.53;;;2.42;;
57071;SDS011;42956;51.366;11.298;2024-02-15T12:13:42;3.40;;;2.85;;
57071;SDS011;42956;51.366;11.298;2024-02-15T12:16:24;3.50;;;2.40;;
57071;SDS011;42956;51.366;11.298;2024-02-15T12:19:07;4.15;;;2.97;;
57071;SDS011;42956;51.366;11.298;2024-02-15T12:21:40;3.63;;;2.60;;
57071;SDS011;42956;51.366;11.298;2024-02-15T12:24:10;3.00;;;2.70;;
57071;SDS011;42956;51.366;11.298;2024-02-15T12:26:41;5.45;;;2.38;;
57071;SDS011;42956;51.366;11.298;2024-02-15T12:29:16;5.45;;;2.17;;
57071;SDS011;42956;51.366;11.298;2024-02-15T12:31:46;5.32;;;3.13;;
57071;SDS011;42956;51.366;11.298;2024-02-15T12:34:16;5.28;;;3.00;;
57071;SDS011;42956;51.366;11.298;2024-02-15T12:37:04;2.75;;;2.25;;
57071;SDS011;42956;51.366;11.298;2024-02-15T12:39:36;6.43;;;2.50;;
57071;SDS011;42956;51.366;11.298;2024-02-15T12:42:08;5.97;;;2.83;;
57071;SDS011;42956;51.366;11.298;2024-02-15T12:44:42;4.03;;;2.67;;
57071;SDS011;42956;51.366;11.298;2024-02-15T12:47:20;2.75;;;2.05;;
57071;SDS011;42956;51.366;11.298;2024-02-15T12:49:50;3.22;;;2.53;;
57071;SDS011;42956;51.366;11.298;2024-02-15T12:52:36;4.25;;;2.40;;
57071;SDS011;42956;51.366;11.298;2024-02-15T12:55:10;3.88;;;2.58;;
57071;SDS011;42956;51.366;11.298;2024-02-15T12:57:40;4.43;;;2.70;;
57071;SDS011;42956;51.366;11.298;2024-02-15T13:00:12;4.95;;;2.30;;
57071;SDS011;42956;51.366;11.298;2024-02-15T13:02:46;2.78;;;2.17;;
57071;SDS011;42956;51.366;11.298;2024-02-15T13:05:17;3.75;;;2.15;;
57071;SDS011;42956;51.366;11.298;2024-02-15T13:07:52;5.57;;;3.77;;
57071;SDS011;42956;51.366;11.298;2024-02-15T13:10:22;5.25;;;3.65;;
57071;SDS011;42956;51.366;11.298;2024-02-15T13:12:52;6.78;;;4.90;;
57071;SDS011;42956;51.366;11.298;2024-02-15T13:15:23;5.65;;;3.53;;
57071;SDS011;42956;51.366;11.298;2024-02-15T13:17:54;6.88;;;3.90;;
57071;SDS011;42956;51.366;11.298;2024-02-15T13:20:25;4.10;;;2.95;;
57071;SDS011;42956;51.366;11.298;2024-02-15T13:23:02;4.35;;;3.33;;
57071;SDS011;42956;51.366;11.298;2024-02-15T13:25:36;7.25;;;2.63;;
57071;SDS011;42956;51.366;11.298;2024-02-15T13:28:08;2.88;;;2.38;;
57071;SDS011;42956;51.366;11.298;2024-02-15T13:30:40;2.08;;;1.67;;
57071;SDS011;42956;51.366;11.298;2024-02-15T13:33:12;5.85;;;2.90;;
57071;SDS011;42956;51.366;11.298;2024-02-15T13:35:44;6.10;;;2.70;;
57071;SDS011;42956;51.366;11.298;2024-02-15T13:38:17;3.83;;;2.58;;
57071;SDS011;42956;51.366;11.298;2024-02-15T13:40:51;3.17;;;1.80;;
57071;SDS011;42956;51.366;11.298;2024-02-15T13:43:23;4.72;;;1.80;;
57071;SDS011;42956;51.366;11.298;2024-02-15T13:45:55;2.78;;;2.10;;
57071;SDS011;42956;51.366;11.298;2024-02-15T13:48:28;2.65;;;2.25;;
57071;SDS011;42956;51.366;11.298;2024-02-15T13:50:59;8.45;;;2.42;;
57071;SDS011;42956;51.366;11.298;2024-02-15T13:53:33;2.85;;;1.80;;
57071;SDS011;42956;51.366;11.298;2024-02-15T13:56:03;2.97;;;2.00;;
57071;SDS011;42956;51.366;11.298;2024-02-15T13:58:34;4.82;;;2.38;;
57071;SDS011;42956;51.366;11.298;2024-02-15T14:01:04;3.78;;;2.15;;
57071;SDS011;42956;51.366;11.298;2024-02-15T14:03:34;5.28;;;2.40;;
57071;SDS011;42956;51.366;11.298;2024-02-15T14:06:04;5.35;;;3.00;;
57071;SDS011;42956;51.366;11.298;2024-02-15T14:08:38;3.72;;;2.25;;
57071;SDS011;42956;51.366;11.298;2024-02-15T14:11:08;4.85;;;2.63;;
57071;SDS011;42956;51.366;11.298;2024-02-15T14:13:38;2.67;;;2.10;;
57071;SDS011;42956;51.366;11.298;2024-02-15T14:16:08;2.13;;;1.83;;
57071;SDS011;42956;51.366;11.298;2024-02-15T14:18:40;6.05;;;2.45;;
57071;SDS011;42956;51.366;11.298;2024-02-15T14:21:12;2.22;;;1.75;;
57071;SDS011;42956;51.366;11.298;2024-02-15T14:23:46;4.85;;;1.95;;
57071;SDS011;42956;51.366;11.298;2024-02-15T14:26:16;3.40;;;1.92;;
57071;SDS011;42956;51.366;11.298;2024-02-15T14:28:49;3.50;;;1.95;;
57071;SDS011;42956;51.366;11.298;2024-02-15T14:31:19;4.00;;;1.80;;
57071;SDS011;42956;51.366;11.298;2024-02-15T14:34:01;3.50;;;2.57;;
57071;SDS011;42956;51.366;11.298;2024-02-15T14:36:31;2.83;;;2.08;;
57071;SDS011;42956;51.366;11.298;2024-02-15T14:39:06;2.83;;;1.70;;
57071;SDS011;42956;51.366;11.298;2024-02-15T14:44:15;3.22;;;2.50;;
57071;SDS011;42956;51.366;11.298;2024-02-15T14:46:45;4.53;;;2.15;;
57071;SDS011;42956;51.366;11.298;2024-02-15T14:49:15;7.50;;;2.40;;
57071;SDS011;42956;51.366;11.298;2024-02-15T14:51:46;4.95;;;2.38;;
57071;SDS011;42956;51.366;11.298;2024-02-15T14:54:20;4.10;;;2.50;;
57071;SDS011;42956;51.366;11.298;2024-02-15T14:56:52;3.17;;;2.40;;
57071;SDS011;42956;51.366;11.298;2024-02-15T14:59:22;4.35;;;2.33;;
57071;SDS011;42956;51.366;11.298;2024-02-15T15:01:52;6.60;;;2.90;;
57071;SDS011;42956;51.366;11.298;2024-02-15T15:04:28;6.03;;;3.17;;
57071;SDS011;42956;51.366;11.298;2024-02-15T15:07:14;6.20;;;3.25;;
57071;SDS011;42956;51.366;11.298;2024-02-15T15:10:10;6.38;;;3.67;;
57071;SDS011;42956;51.366;11.298;2024-02-15T15:12:52;7.15;;;3.72;;
57071;SDS011;42956;51.366;11.298;2024-02-15T15:15:23;4.95;;;3.05;;
57071;SDS011;42956;51.366;11.298;2024-02-15T15:17:54;6.85;;;2.88;;
57071;SDS011;42956;51.366;11.298;2024-02-15T15:20:24;6.45;;;3.08;;
57071;SDS011;42956;51.366;11.298;2024-02-15T15:22:54;4.22;;;2.80;;